<?xml version="1.0" encoding="UTF-8"?>
<gpx version="1.0" creator="Gaggle https://github.com/geeksville/Gaggle" xmlns:xsi="http://www.w3.org/2001/XMLSchema-instance" xmlns="http://www.topografix.com/GPX/1/0" xsi:schemaLocation="http://www.topografix.com/GPX/1/0 http://www.topografix.com/GPX/1/0/gpx.xsd">
<trk>
	<name>Jorgev's flight</name>
	<desc>
	Pilot name:	Jorgev
	Pilot ID:	
	Glider type:	Rush 2
	</desc>
	<trkseg>
		<trkpt lat="42.874239" lon="-5.374244">
			<ele>1619.000000</ele>
		<time>2015-11-14T02:11:54Z</time>
		</trkpt>

		<trkpt lat="42.874249" lon="-5.374208">
			<ele>1636.000000</ele>
		<time>2015-11-14T02:13:21Z</time>
		</trkpt>

		<trkpt lat="42.874240" lon="-5.374244">
			<ele>1633.000000</ele>
		<time>2015-11-14T02:18:08Z</time>
		</trkpt>

		<trkpt lat="42.874226" lon="-5.374210">
			<ele>1631.000000</ele>
		<time>2015-11-14T02:18:52Z</time>
		</trkpt>

		<trkpt lat="42.874247" lon="-5.374234">
			<ele>1631.000000</ele>
		<time>2015-11-14T02:20:57Z</time>
		</trkpt>

		<trkpt lat="42.874268" lon="-5.374208">
			<ele>1631.000000</ele>
		<time>2015-11-14T02:21:18Z</time>
		</trkpt>

		<trkpt lat="42.874242" lon="-5.374222">
			<ele>1631.000000</ele>
		<time>2015-11-14T02:22:31Z</time>
		</trkpt>

		<trkpt lat="42.874239" lon="-5.374301">
			<ele>1627.000000</ele>
		<time>2015-11-14T02:22:35Z</time>
		</trkpt>

		<trkpt lat="42.874234" lon="-5.374481">
			<ele>1622.000000</ele>
		<time>2015-11-14T02:22:38Z</time>
		</trkpt>

		<trkpt lat="42.874188" lon="-5.374783">
			<ele>1618.000000</ele>
		<time>2015-11-14T02:22:41Z</time>
		</trkpt>

		<trkpt lat="42.874081" lon="-5.374998">
			<ele>1614.000000</ele>
		<time>2015-11-14T02:22:44Z</time>
		</trkpt>

		<trkpt lat="42.873922" lon="-5.375172">
			<ele>1611.000000</ele>
		<time>2015-11-14T02:22:47Z</time>
		</trkpt>

		<trkpt lat="42.873762" lon="-5.375340">
			<ele>1608.000000</ele>
		<time>2015-11-14T02:22:50Z</time>
		</trkpt>

		<trkpt lat="42.873594" lon="-5.375558">
			<ele>1601.000000</ele>
		<time>2015-11-14T02:22:53Z</time>
		</trkpt>

		<trkpt lat="42.873452" lon="-5.375793">
			<ele>1597.000000</ele>
		<time>2015-11-14T02:22:56Z</time>
		</trkpt>

		<trkpt lat="42.873297" lon="-5.376020">
			<ele>1592.000000</ele>
		<time>2015-11-14T02:22:59Z</time>
		</trkpt>

		<trkpt lat="42.873151" lon="-5.376265">
			<ele>1588.000000</ele>
		<time>2015-11-14T02:23:02Z</time>
		</trkpt>

		<trkpt lat="42.872986" lon="-5.376477">
			<ele>1586.000000</ele>
		<time>2015-11-14T02:23:05Z</time>
		</trkpt>

		<trkpt lat="42.872804" lon="-5.376668">
			<ele>1584.000000</ele>
		<time>2015-11-14T02:23:08Z</time>
		</trkpt>

		<trkpt lat="42.872585" lon="-5.376796">
			<ele>1583.000000</ele>
		<time>2015-11-14T02:23:11Z</time>
		</trkpt>

		<trkpt lat="42.872369" lon="-5.376898">
			<ele>1580.000000</ele>
		<time>2015-11-14T02:23:14Z</time>
		</trkpt>

		<trkpt lat="42.872194" lon="-5.376944">
			<ele>1581.000000</ele>
		<time>2015-11-14T02:23:17Z</time>
		</trkpt>

		<trkpt lat="42.872020" lon="-5.376967">
			<ele>1581.000000</ele>
		<time>2015-11-14T02:23:20Z</time>
		</trkpt>

		<trkpt lat="42.871812" lon="-5.376913">
			<ele>1579.000000</ele>
		<time>2015-11-14T02:23:23Z</time>
		</trkpt>

		<trkpt lat="42.871603" lon="-5.376782">
			<ele>1578.000000</ele>
		<time>2015-11-14T02:23:26Z</time>
		</trkpt>

		<trkpt lat="42.871422" lon="-5.376538">
			<ele>1578.000000</ele>
		<time>2015-11-14T02:23:29Z</time>
		</trkpt>

		<trkpt lat="42.871187" lon="-5.376425">
			<ele>1582.000000</ele>
		<time>2015-11-14T02:23:32Z</time>
		</trkpt>

		<trkpt lat="42.871029" lon="-5.376561">
			<ele>1583.000000</ele>
		<time>2015-11-14T02:23:35Z</time>
		</trkpt>

		<trkpt lat="42.870861" lon="-5.376685">
			<ele>1584.000000</ele>
		<time>2015-11-14T02:23:38Z</time>
		</trkpt>

		<trkpt lat="42.870718" lon="-5.376941">
			<ele>1589.000000</ele>
		<time>2015-11-14T02:23:41Z</time>
		</trkpt>

		<trkpt lat="42.870614" lon="-5.377179">
			<ele>1595.000000</ele>
		<time>2015-11-14T02:23:44Z</time>
		</trkpt>

		<trkpt lat="42.870554" lon="-5.377457">
			<ele>1601.000000</ele>
		<time>2015-11-14T02:23:47Z</time>
		</trkpt>

		<trkpt lat="42.870533" lon="-5.377704">
			<ele>1604.000000</ele>
		<time>2015-11-14T02:23:50Z</time>
		</trkpt>

		<trkpt lat="42.870670" lon="-5.377918">
			<ele>1602.000000</ele>
		<time>2015-11-14T02:23:53Z</time>
		</trkpt>

		<trkpt lat="42.870897" lon="-5.377952">
			<ele>1599.000000</ele>
		<time>2015-11-14T02:23:56Z</time>
		</trkpt>

		<trkpt lat="42.871083" lon="-5.377786">
			<ele>1596.000000</ele>
		<time>2015-11-14T02:23:59Z</time>
		</trkpt>

		<trkpt lat="42.871112" lon="-5.377404">
			<ele>1592.000000</ele>
		<time>2015-11-14T02:24:02Z</time>
		</trkpt>

		<trkpt lat="42.870992" lon="-5.377059">
			<ele>1591.000000</ele>
		<time>2015-11-14T02:24:05Z</time>
		</trkpt>

		<trkpt lat="42.870853" lon="-5.376718">
			<ele>1594.000000</ele>
		<time>2015-11-14T02:24:08Z</time>
		</trkpt>

		<trkpt lat="42.870736" lon="-5.376462">
			<ele>1602.000000</ele>
		<time>2015-11-14T02:24:11Z</time>
		</trkpt>

		<trkpt lat="42.870639" lon="-5.376234">
			<ele>1600.000000</ele>
		<time>2015-11-14T02:24:14Z</time>
		</trkpt>

		<trkpt lat="42.870544" lon="-5.375908">
			<ele>1603.000000</ele>
		<time>2015-11-14T02:24:17Z</time>
		</trkpt>

		<trkpt lat="42.870718" lon="-5.375584">
			<ele>1603.000000</ele>
		<time>2015-11-14T02:24:20Z</time>
		</trkpt>

		<trkpt lat="42.870996" lon="-5.375404">
			<ele>1602.000000</ele>
		<time>2015-11-14T02:24:23Z</time>
		</trkpt>

		<trkpt lat="42.871242" lon="-5.375587">
			<ele>1602.000000</ele>
		<time>2015-11-14T02:24:26Z</time>
		</trkpt>

		<trkpt lat="42.871355" lon="-5.375862">
			<ele>1605.000000</ele>
		<time>2015-11-14T02:24:29Z</time>
		</trkpt>

		<trkpt lat="42.871393" lon="-5.376112">
			<ele>1608.000000</ele>
		<time>2015-11-14T02:24:32Z</time>
		</trkpt>

		<trkpt lat="42.871337" lon="-5.376331">
			<ele>1605.000000</ele>
		<time>2015-11-14T02:24:35Z</time>
		</trkpt>

		<trkpt lat="42.871271" lon="-5.376557">
			<ele>1604.000000</ele>
		<time>2015-11-14T02:24:38Z</time>
		</trkpt>

		<trkpt lat="42.871167" lon="-5.376814">
			<ele>1599.000000</ele>
		<time>2015-11-14T02:24:41Z</time>
		</trkpt>

		<trkpt lat="42.870992" lon="-5.376965">
			<ele>1594.000000</ele>
		<time>2015-11-14T02:24:44Z</time>
		</trkpt>

		<trkpt lat="42.870725" lon="-5.376890">
			<ele>1587.000000</ele>
		<time>2015-11-14T02:24:47Z</time>
		</trkpt>

		<trkpt lat="42.870572" lon="-5.376528">
			<ele>1586.000000</ele>
		<time>2015-11-14T02:24:50Z</time>
		</trkpt>

		<trkpt lat="42.870618" lon="-5.376157">
			<ele>1586.000000</ele>
		<time>2015-11-14T02:24:53Z</time>
		</trkpt>

		<trkpt lat="42.870765" lon="-5.375759">
			<ele>1586.000000</ele>
		<time>2015-11-14T02:24:56Z</time>
		</trkpt>

		<trkpt lat="42.870977" lon="-5.375556">
			<ele>1585.000000</ele>
		<time>2015-11-14T02:24:59Z</time>
		</trkpt>

		<trkpt lat="42.871256" lon="-5.375673">
			<ele>1584.000000</ele>
		<time>2015-11-14T02:25:02Z</time>
		</trkpt>

		<trkpt lat="42.871405" lon="-5.375937">
			<ele>1588.000000</ele>
		<time>2015-11-14T02:25:05Z</time>
		</trkpt>

		<trkpt lat="42.871418" lon="-5.376214">
			<ele>1585.000000</ele>
		<time>2015-11-14T02:25:08Z</time>
		</trkpt>

		<trkpt lat="42.871358" lon="-5.376457">
			<ele>1581.000000</ele>
		<time>2015-11-14T02:25:11Z</time>
		</trkpt>

		<trkpt lat="42.871361" lon="-5.376748">
			<ele>1578.000000</ele>
		<time>2015-11-14T02:25:14Z</time>
		</trkpt>

		<trkpt lat="42.871376" lon="-5.376977">
			<ele>1577.000000</ele>
		<time>2015-11-14T02:25:17Z</time>
		</trkpt>

		<trkpt lat="42.871346" lon="-5.377215">
			<ele>1573.000000</ele>
		<time>2015-11-14T02:25:20Z</time>
		</trkpt>

		<trkpt lat="42.871187" lon="-5.377350">
			<ele>1568.000000</ele>
		<time>2015-11-14T02:25:23Z</time>
		</trkpt>

		<trkpt lat="42.871009" lon="-5.377253">
			<ele>1564.000000</ele>
		<time>2015-11-14T02:25:26Z</time>
		</trkpt>

		<trkpt lat="42.870914" lon="-5.376905">
			<ele>1558.000000</ele>
		<time>2015-11-14T02:25:29Z</time>
		</trkpt>

		<trkpt lat="42.870957" lon="-5.376562">
			<ele>1557.000000</ele>
		<time>2015-11-14T02:25:32Z</time>
		</trkpt>

		<trkpt lat="42.871027" lon="-5.376243">
			<ele>1555.000000</ele>
		<time>2015-11-14T02:25:35Z</time>
		</trkpt>

		<trkpt lat="42.871080" lon="-5.375878">
			<ele>1554.000000</ele>
		<time>2015-11-14T02:25:38Z</time>
		</trkpt>

		<trkpt lat="42.871050" lon="-5.375542">
			<ele>1556.000000</ele>
		<time>2015-11-14T02:25:41Z</time>
		</trkpt>

		<trkpt lat="42.871045" lon="-5.375159">
			<ele>1556.000000</ele>
		<time>2015-11-14T02:25:44Z</time>
		</trkpt>

		<trkpt lat="42.871135" lon="-5.374756">
			<ele>1554.000000</ele>
		<time>2015-11-14T02:25:47Z</time>
		</trkpt>

		<trkpt lat="42.871267" lon="-5.374476">
			<ele>1552.000000</ele>
		<time>2015-11-14T02:25:50Z</time>
		</trkpt>

		<trkpt lat="42.871422" lon="-5.374219">
			<ele>1549.000000</ele>
		<time>2015-11-14T02:25:53Z</time>
		</trkpt>

		<trkpt lat="42.871594" lon="-5.373988">
			<ele>1545.000000</ele>
		<time>2015-11-14T02:25:56Z</time>
		</trkpt>

		<trkpt lat="42.871781" lon="-5.373690">
			<ele>1544.000000</ele>
		<time>2015-11-14T02:25:59Z</time>
		</trkpt>

		<trkpt lat="42.871806" lon="-5.373332">
			<ele>1541.000000</ele>
		<time>2015-11-14T02:26:02Z</time>
		</trkpt>

		<trkpt lat="42.871656" lon="-5.373116">
			<ele>1540.000000</ele>
		<time>2015-11-14T02:26:05Z</time>
		</trkpt>

		<trkpt lat="42.871446" lon="-5.373092">
			<ele>1536.000000</ele>
		<time>2015-11-14T02:26:08Z</time>
		</trkpt>

		<trkpt lat="42.871266" lon="-5.373241">
			<ele>1536.000000</ele>
		<time>2015-11-14T02:26:11Z</time>
		</trkpt>

		<trkpt lat="42.871107" lon="-5.373463">
			<ele>1533.000000</ele>
		<time>2015-11-14T02:26:14Z</time>
		</trkpt>

		<trkpt lat="42.870985" lon="-5.373673">
			<ele>1527.000000</ele>
		<time>2015-11-14T02:26:17Z</time>
		</trkpt>

		<trkpt lat="42.870839" lon="-5.373950">
			<ele>1524.000000</ele>
		<time>2015-11-14T02:26:20Z</time>
		</trkpt>

		<trkpt lat="42.870722" lon="-5.374193">
			<ele>1521.000000</ele>
		<time>2015-11-14T02:26:23Z</time>
		</trkpt>

		<trkpt lat="42.870566" lon="-5.374348">
			<ele>1519.000000</ele>
		<time>2015-11-14T02:26:26Z</time>
		</trkpt>

		<trkpt lat="42.870415" lon="-5.374317">
			<ele>1517.000000</ele>
		<time>2015-11-14T02:26:29Z</time>
		</trkpt>

		<trkpt lat="42.870286" lon="-5.374057">
			<ele>1513.000000</ele>
		<time>2015-11-14T02:26:32Z</time>
		</trkpt>

		<trkpt lat="42.870378" lon="-5.373718">
			<ele>1512.000000</ele>
		<time>2015-11-14T02:26:35Z</time>
		</trkpt>

		<trkpt lat="42.870476" lon="-5.373397">
			<ele>1506.000000</ele>
		<time>2015-11-14T02:26:38Z</time>
		</trkpt>

		<trkpt lat="42.870488" lon="-5.373000">
			<ele>1502.000000</ele>
		<time>2015-11-14T02:26:41Z</time>
		</trkpt>

		<trkpt lat="42.870496" lon="-5.372644">
			<ele>1498.000000</ele>
		<time>2015-11-14T02:26:44Z</time>
		</trkpt>

		<trkpt lat="42.870541" lon="-5.372295">
			<ele>1497.000000</ele>
		<time>2015-11-14T02:26:47Z</time>
		</trkpt>

		<trkpt lat="42.870580" lon="-5.371917">
			<ele>1498.000000</ele>
		<time>2015-11-14T02:26:50Z</time>
		</trkpt>

		<trkpt lat="42.870556" lon="-5.371533">
			<ele>1497.000000</ele>
		<time>2015-11-14T02:26:53Z</time>
		</trkpt>

		<trkpt lat="42.869397" lon="-5.368683">
			<ele>1458.000000</ele>
		<time>2015-11-14T02:27:26Z</time>
		</trkpt>

		<trkpt lat="42.869189" lon="-5.368919">
			<ele>1457.000000</ele>
		<time>2015-11-14T02:27:30Z</time>
		</trkpt>

		<trkpt lat="42.868983" lon="-5.368806">
			<ele>1453.000000</ele>
		<time>2015-11-14T02:27:33Z</time>
		</trkpt>

		<trkpt lat="42.868932" lon="-5.368489">
			<ele>1451.000000</ele>
		<time>2015-11-14T02:27:36Z</time>
		</trkpt>

		<trkpt lat="42.868945" lon="-5.368187">
			<ele>1446.000000</ele>
		<time>2015-11-14T02:27:39Z</time>
		</trkpt>

		<trkpt lat="42.869015" lon="-5.367879">
			<ele>1443.000000</ele>
		<time>2015-11-14T02:27:42Z</time>
		</trkpt>

		<trkpt lat="42.869060" lon="-5.367538">
			<ele>1441.000000</ele>
		<time>2015-11-14T02:27:45Z</time>
		</trkpt>

		<trkpt lat="42.869074" lon="-5.367183">
			<ele>1439.000000</ele>
		<time>2015-11-14T02:27:48Z</time>
		</trkpt>

		<trkpt lat="42.869047" lon="-5.366835">
			<ele>1438.000000</ele>
		<time>2015-11-14T02:27:51Z</time>
		</trkpt>

		<trkpt lat="42.869035" lon="-5.366472">
			<ele>1436.000000</ele>
		<time>2015-11-14T02:27:54Z</time>
		</trkpt>

		<trkpt lat="42.868942" lon="-5.366159">
			<ele>1433.000000</ele>
		<time>2015-11-14T02:27:57Z</time>
		</trkpt>

		<trkpt lat="42.868806" lon="-5.365868">
			<ele>1425.000000</ele>
		<time>2015-11-14T02:28:00Z</time>
		</trkpt>

		<trkpt lat="42.868578" lon="-5.365638">
			<ele>1424.000000</ele>
		<time>2015-11-14T02:28:03Z</time>
		</trkpt>

		<trkpt lat="42.868362" lon="-5.365437">
			<ele>1421.000000</ele>
		<time>2015-11-14T02:28:06Z</time>
		</trkpt>

		<trkpt lat="42.868144" lon="-5.365261">
			<ele>1417.000000</ele>
		<time>2015-11-14T02:28:09Z</time>
		</trkpt>

		<trkpt lat="42.867942" lon="-5.365098">
			<ele>1415.000000</ele>
		<time>2015-11-14T02:28:12Z</time>
		</trkpt>

		<trkpt lat="42.867725" lon="-5.364941">
			<ele>1412.000000</ele>
		<time>2015-11-14T02:28:15Z</time>
		</trkpt>

		<trkpt lat="42.867520" lon="-5.364774">
			<ele>1410.000000</ele>
		<time>2015-11-14T02:28:18Z</time>
		</trkpt>

		<trkpt lat="42.867282" lon="-5.364656">
			<ele>1407.000000</ele>
		<time>2015-11-14T02:28:21Z</time>
		</trkpt>

		<trkpt lat="42.867056" lon="-5.364527">
			<ele>1400.000000</ele>
		<time>2015-11-14T02:28:24Z</time>
		</trkpt>

		<trkpt lat="42.866854" lon="-5.364425">
			<ele>1395.000000</ele>
		<time>2015-11-14T02:28:27Z</time>
		</trkpt>

		<trkpt lat="42.866668" lon="-5.364342">
			<ele>1391.000000</ele>
		<time>2015-11-14T02:28:30Z</time>
		</trkpt>

		<trkpt lat="42.866506" lon="-5.364234">
			<ele>1384.000000</ele>
		<time>2015-11-14T02:28:33Z</time>
		</trkpt>

		<trkpt lat="42.866348" lon="-5.364055">
			<ele>1381.000000</ele>
		<time>2015-11-14T02:28:36Z</time>
		</trkpt>

		<trkpt lat="42.866191" lon="-5.363840">
			<ele>1378.000000</ele>
		<time>2015-11-14T02:28:39Z</time>
		</trkpt>

		<trkpt lat="42.866171" lon="-5.363480">
			<ele>1377.000000</ele>
		<time>2015-11-14T02:28:42Z</time>
		</trkpt>

		<trkpt lat="42.866234" lon="-5.363190">
			<ele>1378.000000</ele>
		<time>2015-11-14T02:28:45Z</time>
		</trkpt>

		<trkpt lat="42.866414" lon="-5.362944">
			<ele>1374.000000</ele>
		<time>2015-11-14T02:28:48Z</time>
		</trkpt>

		<trkpt lat="42.866630" lon="-5.362837">
			<ele>1372.000000</ele>
		<time>2015-11-14T02:28:51Z</time>
		</trkpt>

		<trkpt lat="42.866885" lon="-5.363001">
			<ele>1371.000000</ele>
		<time>2015-11-14T02:28:54Z</time>
		</trkpt>

		<trkpt lat="42.866894" lon="-5.363279">
			<ele>1371.000000</ele>
		<time>2015-11-14T02:28:57Z</time>
		</trkpt>

		<trkpt lat="42.866693" lon="-5.363496">
			<ele>1367.000000</ele>
		<time>2015-11-14T02:29:00Z</time>
		</trkpt>

		<trkpt lat="42.866475" lon="-5.363488">
			<ele>1364.000000</ele>
		<time>2015-11-14T02:29:03Z</time>
		</trkpt>

		<trkpt lat="42.866264" lon="-5.363358">
			<ele>1361.000000</ele>
		<time>2015-11-14T02:29:06Z</time>
		</trkpt>

		<trkpt lat="42.866125" lon="-5.363180">
			<ele>1357.000000</ele>
		<time>2015-11-14T02:29:09Z</time>
		</trkpt>

		<trkpt lat="42.865969" lon="-5.362923">
			<ele>1354.000000</ele>
		<time>2015-11-14T02:29:12Z</time>
		</trkpt>

		<trkpt lat="42.865866" lon="-5.362729">
			<ele>1349.000000</ele>
		<time>2015-11-14T02:29:15Z</time>
		</trkpt>

		<trkpt lat="42.865701" lon="-5.362462">
			<ele>1342.000000</ele>
		<time>2015-11-14T02:29:18Z</time>
		</trkpt>

		<trkpt lat="42.865563" lon="-5.362221">
			<ele>1339.000000</ele>
		<time>2015-11-14T02:29:21Z</time>
		</trkpt>

		<trkpt lat="42.865396" lon="-5.361961">
			<ele>1336.000000</ele>
		<time>2015-11-14T02:29:24Z</time>
		</trkpt>

		<trkpt lat="42.865256" lon="-5.361750">
			<ele>1336.000000</ele>
		<time>2015-11-14T02:29:27Z</time>
		</trkpt>

		<trkpt lat="42.865122" lon="-5.361473">
			<ele>1336.000000</ele>
		<time>2015-11-14T02:29:30Z</time>
		</trkpt>

		<trkpt lat="42.865108" lon="-5.361215">
			<ele>1335.000000</ele>
		<time>2015-11-14T02:29:33Z</time>
		</trkpt>

		<trkpt lat="42.865215" lon="-5.360903">
			<ele>1331.000000</ele>
		<time>2015-11-14T02:29:36Z</time>
		</trkpt>

		<trkpt lat="42.865424" lon="-5.360696">
			<ele>1328.000000</ele>
		<time>2015-11-14T02:29:39Z</time>
		</trkpt>

		<trkpt lat="42.865566" lon="-5.360420">
			<ele>1323.000000</ele>
		<time>2015-11-14T02:29:42Z</time>
		</trkpt>

		<trkpt lat="42.865532" lon="-5.360073">
			<ele>1319.000000</ele>
		<time>2015-11-14T02:29:45Z</time>
		</trkpt>

		<trkpt lat="42.865406" lon="-5.359799">
			<ele>1316.000000</ele>
		<time>2015-11-14T02:29:48Z</time>
		</trkpt>

		<trkpt lat="42.865175" lon="-5.359652">
			<ele>1313.000000</ele>
		<time>2015-11-14T02:29:51Z</time>
		</trkpt>

		<trkpt lat="42.864966" lon="-5.359666">
			<ele>1310.000000</ele>
		<time>2015-11-14T02:29:54Z</time>
		</trkpt>

		<trkpt lat="42.864756" lon="-5.359715">
			<ele>1306.000000</ele>
		<time>2015-11-14T02:29:57Z</time>
		</trkpt>

		<trkpt lat="42.864543" lon="-5.359754">
			<ele>1298.000000</ele>
		<time>2015-11-14T02:30:00Z</time>
		</trkpt>

		<trkpt lat="42.864333" lon="-5.359775">
			<ele>1298.000000</ele>
		<time>2015-11-14T02:30:03Z</time>
		</trkpt>

		<trkpt lat="42.864155" lon="-5.359820">
			<ele>1292.000000</ele>
		<time>2015-11-14T02:30:06Z</time>
		</trkpt>

		<trkpt lat="42.863941" lon="-5.359922">
			<ele>1286.000000</ele>
		<time>2015-11-14T02:30:09Z</time>
		</trkpt>

		<trkpt lat="42.863747" lon="-5.360031">
			<ele>1285.000000</ele>
		<time>2015-11-14T02:30:12Z</time>
		</trkpt>

		<trkpt lat="42.863524" lon="-5.360102">
			<ele>1281.000000</ele>
		<time>2015-11-14T02:30:15Z</time>
		</trkpt>

		<trkpt lat="42.863321" lon="-5.360230">
			<ele>1278.000000</ele>
		<time>2015-11-14T02:30:18Z</time>
		</trkpt>

		<trkpt lat="42.863099" lon="-5.360325">
			<ele>1273.000000</ele>
		<time>2015-11-14T02:30:21Z</time>
		</trkpt>

		<trkpt lat="42.862884" lon="-5.360389">
			<ele>1269.000000</ele>
		<time>2015-11-14T02:30:24Z</time>
		</trkpt>

		<trkpt lat="42.862692" lon="-5.360455">
			<ele>1263.000000</ele>
		<time>2015-11-14T02:30:27Z</time>
		</trkpt>

		<trkpt lat="42.862485" lon="-5.360540">
			<ele>1262.000000</ele>
		<time>2015-11-14T02:30:30Z</time>
		</trkpt>

		<trkpt lat="42.862298" lon="-5.360636">
			<ele>1257.000000</ele>
		<time>2015-11-14T02:30:33Z</time>
		</trkpt>

		<trkpt lat="42.862128" lon="-5.360821">
			<ele>1259.000000</ele>
		<time>2015-11-14T02:30:36Z</time>
		</trkpt>

		<trkpt lat="42.862006" lon="-5.361021">
			<ele>1257.000000</ele>
		<time>2015-11-14T02:30:39Z</time>
		</trkpt>

		<trkpt lat="42.861922" lon="-5.361322">
			<ele>1258.000000</ele>
		<time>2015-11-14T02:30:42Z</time>
		</trkpt>

		<trkpt lat="42.861934" lon="-5.361642">
			<ele>1255.000000</ele>
		<time>2015-11-14T02:30:45Z</time>
		</trkpt>

		<trkpt lat="42.862094" lon="-5.361894">
			<ele>1254.000000</ele>
		<time>2015-11-14T02:30:48Z</time>
		</trkpt>

		<trkpt lat="42.862332" lon="-5.361853">
			<ele>1253.000000</ele>
		<time>2015-11-14T02:30:51Z</time>
		</trkpt>

		<trkpt lat="42.862466" lon="-5.361622">
			<ele>1253.000000</ele>
		<time>2015-11-14T02:30:54Z</time>
		</trkpt>

		<trkpt lat="42.862477" lon="-5.361332">
			<ele>1248.000000</ele>
		<time>2015-11-14T02:30:57Z</time>
		</trkpt>

		<trkpt lat="42.862398" lon="-5.361051">
			<ele>1243.000000</ele>
		<time>2015-11-14T02:31:00Z</time>
		</trkpt>

		<trkpt lat="42.862267" lon="-5.360824">
			<ele>1242.000000</ele>
		<time>2015-11-14T02:31:03Z</time>
		</trkpt>

		<trkpt lat="42.862214" lon="-5.360547">
			<ele>1239.000000</ele>
		<time>2015-11-14T02:31:06Z</time>
		</trkpt>

		<trkpt lat="42.862127" lon="-5.360265">
			<ele>1238.000000</ele>
		<time>2015-11-14T02:31:09Z</time>
		</trkpt>

		<trkpt lat="42.862117" lon="-5.359973">
			<ele>1236.000000</ele>
		<time>2015-11-14T02:31:12Z</time>
		</trkpt>

		<trkpt lat="42.862170" lon="-5.359702">
			<ele>1234.000000</ele>
		<time>2015-11-14T02:31:15Z</time>
		</trkpt>

		<trkpt lat="42.862312" lon="-5.359465">
			<ele>1234.000000</ele>
		<time>2015-11-14T02:31:18Z</time>
		</trkpt>

		<trkpt lat="42.862457" lon="-5.359215">
			<ele>1230.000000</ele>
		<time>2015-11-14T02:31:21Z</time>
		</trkpt>

		<trkpt lat="42.862511" lon="-5.358927">
			<ele>1225.000000</ele>
		<time>2015-11-14T02:31:24Z</time>
		</trkpt>

		<trkpt lat="42.862401" lon="-5.358676">
			<ele>1224.000000</ele>
		<time>2015-11-14T02:31:27Z</time>
		</trkpt>

		<trkpt lat="42.862203" lon="-5.358614">
			<ele>1219.000000</ele>
		<time>2015-11-14T02:31:30Z</time>
		</trkpt>

		<trkpt lat="42.862019" lon="-5.358735">
			<ele>1219.000000</ele>
		<time>2015-11-14T02:31:33Z</time>
		</trkpt>

		<trkpt lat="42.861866" lon="-5.358883">
			<ele>1217.000000</ele>
		<time>2015-11-14T02:31:36Z</time>
		</trkpt>

		<trkpt lat="42.861734" lon="-5.359121">
			<ele>1216.000000</ele>
		<time>2015-11-14T02:31:39Z</time>
		</trkpt>

		<trkpt lat="42.861665" lon="-5.359369">
			<ele>1215.000000</ele>
		<time>2015-11-14T02:31:42Z</time>
		</trkpt>

		<trkpt lat="42.861558" lon="-5.359619">
			<ele>1213.000000</ele>
		<time>2015-11-14T02:31:45Z</time>
		</trkpt>

		<trkpt lat="42.861536" lon="-5.359876">
			<ele>1210.000000</ele>
		<time>2015-11-14T02:31:48Z</time>
		</trkpt>

		<trkpt lat="42.861480" lon="-5.360173">
			<ele>1206.000000</ele>
		<time>2015-11-14T02:31:51Z</time>
		</trkpt>

		<trkpt lat="42.860448" lon="-5.359431">
			<ele>1143.000000</ele>
		<time>2015-11-14T02:32:26Z</time>
		</trkpt>

		<trkpt lat="42.860346" lon="-5.359378">
			<ele>1157.000000</ele>
		<time>2015-11-14T02:32:29Z</time>
		</trkpt>

		<trkpt lat="42.860149" lon="-5.359544">
			<ele>1161.000000</ele>
		<time>2015-11-14T02:32:32Z</time>
		</trkpt>

		<trkpt lat="42.859921" lon="-5.359705">
			<ele>1162.000000</ele>
		<time>2015-11-14T02:32:35Z</time>
		</trkpt>

		<trkpt lat="42.859750" lon="-5.359706">
			<ele>1150.000000</ele>
		<time>2015-11-14T02:32:38Z</time>
		</trkpt>

		<trkpt lat="42.859557" lon="-5.359718">
			<ele>1139.000000</ele>
		<time>2015-11-14T02:32:41Z</time>
		</trkpt>

		<trkpt lat="42.859362" lon="-5.359660">
			<ele>1134.000000</ele>
		<time>2015-11-14T02:32:44Z</time>
		</trkpt>

		<trkpt lat="42.859162" lon="-5.359611">
			<ele>1129.000000</ele>
		<time>2015-11-14T02:32:47Z</time>
		</trkpt>

		<trkpt lat="42.858970" lon="-5.359484">
			<ele>1126.000000</ele>
		<time>2015-11-14T02:32:50Z</time>
		</trkpt>

		<trkpt lat="42.858904" lon="-5.359183">
			<ele>1124.000000</ele>
		<time>2015-11-14T02:32:53Z</time>
		</trkpt>

		<trkpt lat="42.859023" lon="-5.358909">
			<ele>1123.000000</ele>
		<time>2015-11-14T02:32:56Z</time>
		</trkpt>

		<trkpt lat="42.859221" lon="-5.358780">
			<ele>1120.000000</ele>
		<time>2015-11-14T02:32:59Z</time>
		</trkpt>

		<trkpt lat="42.859356" lon="-5.358576">
			<ele>1121.000000</ele>
		<time>2015-11-14T02:33:02Z</time>
		</trkpt>

		<trkpt lat="42.859155" lon="-5.358248">
			<ele>1115.000000</ele>
		<time>2015-11-14T02:33:05Z</time>
		</trkpt>

		<trkpt lat="42.858985" lon="-5.358071">
			<ele>1109.000000</ele>
		<time>2015-11-14T02:33:08Z</time>
		</trkpt>

		<trkpt lat="42.858869" lon="-5.358012">
			<ele>1108.000000</ele>
		<time>2015-11-14T02:33:11Z</time>
		</trkpt>

		<trkpt lat="42.858857" lon="-5.357978">
			<ele>1108.000000</ele>
		<time>2015-11-14T02:33:15Z</time>
		</trkpt>

	</trkseg>
</trk>
</gpx>

